createdAt,value
2022-09-28T00:00:07.046Z,11.42
2022-09-28T00:01:07.046Z,11.4
2022-09-28T00:02:07.183Z,11.4
2022-09-28T00:03:07.143Z,11.39
2022-09-28T00:04:07.063Z,11.43
2022-09-28T00:05:07.134Z,11.37
2022-09-28T00:06:07.069Z,11.33
2022-09-28T00:07:07.079Z,11.38
2022-09-28T00:08:07.074Z,11.44
2022-09-28T00:09:07.056Z,11.43
2022-09-28T00:10:07.066Z,11.45
2022-09-28T00:11:07.057Z,11.34
2022-09-28T00:12:07.063Z,11.36
2022-09-28T00:13:07.064Z,11.37
2022-09-28T00:14:07.060Z,11.31
2022-09-28T00:15:07.070Z,11.37
2022-09-28T00:16:07.182Z,11.42
2022-09-28T00:17:07.064Z,11.37
2022-09-28T00:18:07.055Z,11.3
2022-09-28T00:19:07.059Z,11.27
2022-09-28T00:20:07.060Z,11.21
2022-09-28T00:21:07.061Z,11.21
2022-09-28T00:22:07.076Z,11.18
2022-09-28T00:23:07.067Z,11.22
2022-09-28T00:24:07.063Z,11.22
2022-09-28T00:25:07.060Z,11.22
2022-09-28T00:26:07.051Z,11.19
2022-09-28T00:27:07.067Z,11.12
2022-09-28T00:28:07.064Z,11.24
2022-09-28T00:29:07.057Z,11.29
2022-09-28T00:30:07.040Z,11.27
2022-09-28T00:31:07.105Z,11.16
2022-09-28T00:32:07.063Z,11.1
2022-09-28T00:33:07.146Z,11.08
2022-09-28T00:34:07.077Z,11.01
2022-09-28T00:35:07.041Z,10.99
2022-09-28T00:36:07.048Z,10.92
2022-09-28T00:37:07.061Z,10.96
2022-09-28T00:38:07.057Z,11.02
2022-09-28T00:39:07.050Z,10.96
2022-09-28T00:40:07.045Z,10.99
2022-09-28T00:41:07.045Z,10.98
2022-09-28T00:42:07.055Z,10.87
2022-09-28T00:43:07.098Z,11
2022-09-28T00:44:07.041Z,11.01
2022-09-28T00:45:07.050Z,10.97
2022-09-28T00:46:07.166Z,10.97
2022-09-28T00:47:07.059Z,11.08
2022-09-28T00:48:07.051Z,11.07
2022-09-28T00:49:07.054Z,11.2
2022-09-28T00:50:07.060Z,11.08
2022-09-28T00:51:07.068Z,11.14
2022-09-28T00:52:07.074Z,11.12
2022-09-28T00:53:07.067Z,11.07
2022-09-28T00:54:07.064Z,11.1
2022-09-28T00:55:07.060Z,11.17
2022-09-28T00:56:07.062Z,11.15
2022-09-28T00:57:07.062Z,11.19
2022-09-28T00:58:07.070Z,11.35
2022-09-28T00:59:07.056Z,11.27
2022-09-28T01:00:07.051Z,11.31
2022-09-28T01:01:07.121Z,11.28
2022-09-28T01:02:07.139Z,11.3
2022-09-28T01:03:07.068Z,11.26
2022-09-28T01:04:07.055Z,11.12
2022-09-28T01:05:07.054Z,11.24
2022-09-28T01:06:07.120Z,11.33
2022-09-28T01:07:07.081Z,11.34
2022-09-28T01:08:07.055Z,11.29
2022-09-28T01:09:07.063Z,11.25
2022-09-28T01:10:07.057Z,11.29
2022-09-28T01:11:07.062Z,11.33
2022-09-28T01:12:07.062Z,11.2
2022-09-28T01:13:07.068Z,11.19
2022-09-28T01:14:07.061Z,11.35
2022-09-28T01:15:07.052Z,11.35
2022-09-28T01:16:07.133Z,11.27
2022-09-28T01:17:07.060Z,11.27
2022-09-28T01:18:07.063Z,11.29
2022-09-28T01:19:07.052Z,11.27
2022-09-28T01:20:07.192Z,11.28
2022-09-28T01:21:07.056Z,11.28
2022-09-28T01:22:07.079Z,11.4
2022-09-28T01:23:07.069Z,11.41
2022-09-28T01:24:07.065Z,11.31
2022-09-28T01:25:07.061Z,11.15
2022-09-28T01:26:07.057Z,11.12
2022-09-28T01:27:07.063Z,11.11
2022-09-28T01:28:07.069Z,11.16
2022-09-28T01:29:07.051Z,11.15
2022-09-28T01:30:07.039Z,11.23
2022-09-28T01:31:07.131Z,11.17
2022-09-28T01:32:07.061Z,11.17
2022-09-28T01:33:07.096Z,11.13
2022-09-28T01:34:07.079Z,11.13
2022-09-28T01:35:07.059Z,11.13
2022-09-28T01:36:07.072Z,11.32
2022-09-28T01:37:07.086Z,11.31
2022-09-28T01:38:07.079Z,11.16
2022-09-28T01:39:07.055Z,11.22
2022-09-28T01:40:07.054Z,11.37
2022-09-28T01:41:07.051Z,11.32
2022-09-28T01:42:07.057Z,11.19
2022-09-28T01:43:07.067Z,11.15
2022-09-28T01:44:07.049Z,11.26
2022-09-28T01:45:07.039Z,11.33
2022-09-28T01:46:07.208Z,11.31
2022-09-28T01:47:07.051Z,11.34
2022-09-28T01:48:07.050Z,11.25
2022-09-28T01:49:07.046Z,11.09
2022-09-28T01:50:07.046Z,11.15
2022-09-28T01:51:07.047Z,11.17
2022-09-28T01:52:07.069Z,11.09
2022-09-28T01:53:07.055Z,11.08
2022-09-28T01:54:07.061Z,11.09
2022-09-28T01:55:07.057Z,11.2
2022-09-28T01:56:07.057Z,11.2
2022-09-28T01:57:07.063Z,11.24
2022-09-28T01:58:07.076Z,11.3
2022-09-28T01:59:07.063Z,11.15
2022-09-28T02:00:07.036Z,11.02
2022-09-28T02:01:07.141Z,10.87
2022-09-28T02:02:07.162Z,10.88
2022-09-28T02:03:07.063Z,10.88
2022-09-28T02:04:07.065Z,10.94
2022-09-28T02:05:07.054Z,10.95
2022-09-28T02:06:07.059Z,11.03
2022-09-28T02:07:07.075Z,11.01
2022-09-28T02:08:07.069Z,10.98
2022-09-28T02:09:07.061Z,10.95
2022-09-28T02:10:07.059Z,11.04
2022-09-28T02:11:07.052Z,11.01
2022-09-28T02:12:07.058Z,10.96
2022-09-28T02:13:07.062Z,10.96
2022-09-28T02:14:07.061Z,10.92
2022-09-28T02:15:07.052Z,10.87
2022-09-28T02:16:07.099Z,10.84
2022-09-28T02:17:07.052Z,10.73
2022-09-28T02:18:07.067Z,10.85
2022-09-28T02:19:07.049Z,10.82
2022-09-28T02:20:07.063Z,10.86
2022-09-28T02:21:07.109Z,10.9
2022-09-28T02:22:07.070Z,10.91
2022-09-28T02:23:07.055Z,10.83
2022-09-28T02:24:07.055Z,10.87
2022-09-28T02:25:07.060Z,10.77
2022-09-28T02:26:07.057Z,10.75
2022-09-28T02:27:07.056Z,10.65
2022-09-28T02:28:07.062Z,10.69
2022-09-28T02:29:07.064Z,10.63
2022-09-28T02:30:07.048Z,10.64
2022-09-28T02:31:07.147Z,10.69
2022-09-28T02:32:07.062Z,10.71
2022-09-28T02:33:07.059Z,10.61
2022-09-28T02:34:07.051Z,10.71
2022-09-28T02:35:07.051Z,10.6
2022-09-28T02:36:07.054Z,10.53
2022-09-28T02:37:07.073Z,10.49
2022-09-28T02:38:07.064Z,10.56
2022-09-28T02:39:07.054Z,10.67
2022-09-28T02:40:07.059Z,10.65
2022-09-28T02:41:07.044Z,10.61
2022-09-28T02:42:07.059Z,10.64
2022-09-28T02:43:07.059Z,10.69
2022-09-28T02:44:07.044Z,10.74
2022-09-28T02:45:07.037Z,10.86
2022-09-28T02:46:07.097Z,10.85
2022-09-28T02:47:07.040Z,10.82
2022-09-28T02:48:07.052Z,10.8
2022-09-28T02:49:20.813Z,10.68
2022-09-28T02:50:07.036Z,10.64
2022-09-28T02:51:07.044Z,10.62
2022-09-28T02:52:07.053Z,10.57
2022-09-28T02:53:07.041Z,10.66
2022-09-28T02:54:07.039Z,10.73
2022-09-28T02:55:07.056Z,10.72
2022-09-28T02:56:07.052Z,10.71
2022-09-28T02:57:07.036Z,10.74
2022-09-28T02:58:07.058Z,10.68
2022-09-28T02:59:07.055Z,10.73
2022-09-28T03:00:07.040Z,10.7
2022-09-28T03:01:07.094Z,10.62
2022-09-28T03:02:07.083Z,10.67
2022-09-28T03:03:07.067Z,10.61
2022-09-28T03:04:07.043Z,10.61
2022-09-28T03:05:07.062Z,10.58
2022-09-28T03:06:07.053Z,10.5
2022-09-28T03:07:07.067Z,10.47
2022-09-28T03:08:07.072Z,10.47
2022-09-28T03:09:07.056Z,10.4
2022-09-28T03:10:07.057Z,10.38
2022-09-28T03:11:07.050Z,10.43
2022-09-28T03:12:07.056Z,10.3
2022-09-28T03:13:07.055Z,10.31
2022-09-28T03:14:07.053Z,10.32
2022-09-28T03:15:07.050Z,10.28
2022-09-28T03:16:07.113Z,10.29
2022-09-28T03:17:07.095Z,10.2
2022-09-28T03:18:07.059Z,10.14
2022-09-28T03:19:07.060Z,10.19
2022-09-28T03:20:07.049Z,10.16
2022-09-28T03:21:07.060Z,10.15
2022-09-28T03:22:07.065Z,10.17
2022-09-28T03:23:23.705Z,10.19
2022-09-28T03:24:07.049Z,10.12
2022-09-28T03:25:07.056Z,10.09
2022-09-28T03:26:07.059Z,10
2022-09-28T03:27:07.054Z,10
2022-09-28T03:28:07.061Z,10.11
2022-09-28T03:29:07.060Z,10.09
2022-09-28T03:30:07.045Z,10.11
2022-09-28T03:31:07.179Z,10.08
2022-09-28T03:32:07.059Z,10.08
2022-09-28T03:33:07.064Z,10.12
2022-09-28T03:34:07.061Z,10.18
2022-09-28T03:35:07.059Z,10.18
2022-09-28T03:36:07.051Z,10.1
2022-09-28T03:37:07.087Z,10.05
2022-09-28T03:38:07.061Z,10.02
2022-09-28T03:39:07.061Z,9.98
2022-09-28T03:40:07.057Z,9.98
2022-09-28T03:41:07.056Z,9.86
2022-09-28T03:42:07.053Z,9.81
2022-09-28T03:43:07.065Z,9.89
2022-09-28T03:44:07.053Z,9.73
2022-09-28T03:45:07.048Z,9.64
2022-09-28T03:46:07.121Z,9.72
2022-09-28T03:47:07.039Z,9.78
2022-09-28T03:48:07.044Z,9.9
2022-09-28T03:49:07.037Z,9.83
2022-09-28T03:50:07.040Z,9.86
2022-09-28T03:51:07.053Z,9.71
2022-09-28T03:52:07.058Z,9.61
2022-09-28T03:53:07.048Z,9.63
2022-09-28T03:54:07.037Z,9.65
2022-09-28T03:55:07.069Z,9.64
2022-09-28T03:56:07.035Z,9.67
2022-09-28T03:57:07.044Z,9.59
2022-09-28T03:58:07.056Z,9.63
2022-09-28T03:59:07.049Z,9.58
2022-09-28T04:00:07.042Z,9.64
2022-09-28T04:01:07.165Z,9.77
2022-09-28T04:02:07.119Z,9.82
2022-09-28T04:03:07.067Z,9.86
2022-09-28T04:04:07.063Z,9.85
2022-09-28T04:05:07.061Z,9.94
2022-09-28T04:06:07.051Z,9.95
2022-09-28T04:07:07.074Z,9.9
2022-09-28T04:08:07.055Z,9.77
2022-09-28T04:09:07.052Z,9.82
2022-09-28T04:10:07.048Z,9.95
2022-09-28T04:11:07.058Z,9.93
2022-09-28T04:12:07.065Z,9.93
2022-09-28T04:13:07.057Z,9.84
2022-09-28T04:14:07.051Z,9.85
2022-09-28T04:15:07.055Z,9.84
2022-09-28T04:16:07.157Z,9.81
2022-09-28T04:17:07.055Z,9.88
2022-09-28T04:18:07.069Z,9.94
2022-09-28T04:19:07.058Z,9.99
2022-09-28T04:20:07.060Z,9.98
2022-09-28T04:21:07.040Z,9.97
2022-09-28T04:22:07.076Z,9.95
2022-09-28T04:23:07.059Z,9.92
2022-09-28T04:24:07.052Z,10.02
2022-09-28T04:25:07.058Z,10.09
2022-09-28T04:26:07.059Z,10.13
2022-09-28T04:27:07.046Z,10.19
2022-09-28T04:28:07.076Z,10.27
2022-09-28T04:29:07.183Z,10.27
2022-09-28T04:30:07.052Z,10.2
2022-09-28T04:31:07.087Z,10.2
2022-09-28T04:32:07.134Z,10.21
2022-09-28T04:33:07.063Z,10.2
2022-09-28T04:34:07.060Z,10.07
2022-09-28T04:35:07.050Z,10.2
2022-09-28T04:36:07.066Z,10.15
2022-09-28T04:37:07.074Z,10.3
2022-09-28T04:38:07.052Z,10.43
2022-09-28T04:39:07.059Z,10.33
2022-09-28T04:40:07.055Z,10.34
2022-09-28T04:41:07.052Z,10.38
2022-09-28T04:42:07.052Z,10.45
2022-09-28T04:43:07.061Z,10.49
2022-09-28T04:44:07.055Z,10.54
2022-09-28T04:45:07.048Z,10.44
2022-09-28T04:46:07.098Z,10.53
2022-09-28T04:47:07.036Z,10.52
2022-09-28T04:48:07.063Z,10.47
2022-09-28T04:49:07.037Z,10.53
2022-09-28T04:50:07.036Z,10.43
2022-09-28T04:51:07.058Z,10.45
2022-09-28T04:52:07.058Z,10.46
2022-09-28T04:53:07.046Z,10.48
2022-09-28T04:54:07.040Z,10.41
2022-09-28T04:55:07.037Z,10.38
2022-09-28T04:56:07.136Z,10.46
2022-09-28T04:57:07.052Z,10.45
2022-09-28T04:58:07.051Z,10.47
2022-09-28T04:59:07.038Z,10.51
2022-09-28T05:00:07.051Z,10.44
2022-09-28T05:01:07.126Z,10.46
2022-09-28T05:02:07.114Z,10.36
2022-09-28T05:03:07.060Z,10.37
2022-09-28T05:04:07.043Z,10.45
2022-09-28T05:05:07.056Z,10.46
2022-09-28T05:06:07.072Z,10.53
2022-09-28T05:07:07.079Z,10.67
2022-09-28T05:08:07.064Z,10.57
2022-09-28T05:09:07.055Z,10.58
2022-09-28T05:10:07.063Z,10.71
2022-09-28T05:11:07.059Z,10.79
2022-09-28T05:12:07.047Z,10.72
2022-09-28T05:13:07.071Z,10.88
2022-09-28T05:14:07.050Z,10.88
2022-09-28T05:15:07.059Z,10.92
2022-09-28T05:16:07.299Z,10.83
2022-09-28T05:17:07.054Z,10.8
2022-09-28T05:18:07.063Z,10.8
2022-09-28T05:19:07.061Z,10.79
2022-09-28T05:20:07.048Z,10.81
2022-09-28T05:21:07.052Z,10.89
2022-09-28T05:22:07.077Z,10.96
2022-09-28T05:23:07.055Z,10.95
2022-09-28T05:24:07.052Z,10.89
2022-09-28T05:25:07.057Z,11.06
2022-09-28T05:26:07.052Z,11.16
2022-09-28T05:27:07.062Z,11.22
2022-09-28T05:28:07.059Z,11.23
2022-09-28T05:29:07.058Z,11.24
2022-09-28T05:30:07.052Z,11.26
2022-09-28T05:31:07.051Z,11.2
2022-09-28T05:32:07.146Z,11.13
2022-09-28T05:33:07.065Z,11.16
2022-09-28T05:34:07.052Z,11.22
2022-09-28T05:35:07.055Z,11.18
2022-09-28T05:36:07.066Z,11.3
2022-09-28T05:37:07.071Z,11.27
2022-09-28T05:38:07.063Z,11.39
2022-09-28T05:39:07.055Z,11.41
2022-09-28T05:40:07.059Z,11.42
2022-09-28T05:41:07.164Z,11.44
2022-09-28T05:42:07.046Z,11.45
2022-09-28T05:43:07.062Z,11.45
2022-09-28T05:44:07.055Z,11.43
2022-09-28T05:45:07.054Z,11.46
2022-09-28T05:46:07.184Z,11.43
2022-09-28T05:47:07.052Z,11.48
2022-09-28T05:48:07.058Z,11.39
2022-09-28T05:49:07.061Z,11.46
2022-09-28T05:50:07.051Z,11.46
2022-09-28T05:51:07.060Z,11.46
2022-09-28T05:52:07.072Z,11.46
2022-09-28T05:53:07.068Z,11.65
2022-09-28T05:54:07.053Z,11.66
2022-09-28T05:55:07.056Z,11.65
2022-09-28T05:56:07.055Z,11.59
2022-09-28T05:57:07.050Z,11.58
2022-09-28T05:58:07.052Z,11.48
2022-09-28T05:59:07.035Z,11.39
2022-09-28T06:00:07.154Z,11.46
2022-09-28T06:01:07.086Z,11.34
2022-09-28T06:02:07.082Z,11.3
2022-09-28T06:03:09.228Z,11.38
2022-09-28T06:04:07.042Z,11.52
2022-09-28T06:05:07.035Z,11.38
2022-09-28T06:06:07.055Z,11.49
2022-09-28T06:07:07.055Z,11.31
2022-09-28T06:08:07.050Z,11.37
2022-09-28T06:09:07.047Z,11.44
2022-09-28T06:10:07.058Z,11.5
2022-09-28T06:11:07.041Z,11.61
2022-09-28T06:12:07.036Z,11.64
2022-09-28T06:13:07.058Z,11.64
2022-09-28T06:14:07.039Z,11.67
2022-09-28T06:15:07.040Z,11.73
2022-09-28T06:16:07.049Z,11.72
2022-09-28T06:17:07.154Z,11.64
2022-09-28T06:18:07.066Z,11.68
2022-09-28T06:19:07.159Z,11.74
2022-09-28T06:20:07.058Z,11.77
2022-09-28T06:21:07.047Z,11.76
2022-09-28T06:22:07.070Z,11.81
2022-09-28T06:23:07.058Z,11.79
2022-09-28T06:24:07.054Z,11.9
2022-09-28T06:25:07.053Z,11.91
2022-09-28T06:26:07.060Z,11.86
2022-09-28T06:27:07.059Z,11.81
2022-09-28T06:28:07.058Z,11.88
2022-09-28T06:29:07.057Z,11.9
2022-09-28T06:30:07.057Z,11.87
2022-09-28T06:31:07.161Z,11.97
2022-09-28T06:32:07.057Z,11.97
2022-09-28T06:33:07.071Z,12.25
2022-09-28T06:34:07.050Z,12.25
2022-09-28T06:35:07.054Z,12.14
2022-09-28T06:36:07.047Z,12.14
2022-09-28T06:37:07.074Z,12.12
2022-09-28T06:38:07.064Z,12.05
2022-09-28T06:39:07.152Z,12.15
2022-09-28T06:40:07.059Z,12.19
2022-09-28T06:41:07.057Z,12.25
2022-09-28T06:42:07.061Z,12.26
2022-09-28T06:43:07.072Z,12.16
2022-09-28T06:44:07.057Z,12.11
2022-09-28T06:45:07.055Z,12.19
2022-09-28T06:46:07.125Z,12.04
2022-09-28T06:47:07.060Z,12.08
2022-09-28T06:48:07.075Z,12.12
2022-09-28T06:49:07.056Z,12.1
2022-09-28T06:50:07.038Z,12.13
2022-09-28T06:51:07.050Z,12.21
2022-09-28T06:52:07.071Z,12.14
2022-09-28T06:53:07.056Z,12.06
2022-09-28T06:54:07.054Z,12
2022-09-28T06:55:07.052Z,11.91
2022-09-28T06:56:07.054Z,11.91
2022-09-28T06:57:07.051Z,11.99
2022-09-28T06:58:07.058Z,12.11
2022-09-28T06:59:07.060Z,12.02
2022-09-28T07:00:07.059Z,12.04
2022-09-28T07:01:07.122Z,12.06
2022-09-28T07:02:07.161Z,12.02
2022-09-28T07:03:07.058Z,11.97
2022-09-28T07:04:07.051Z,11.78
2022-09-28T07:05:07.107Z,11.68
2022-09-28T07:06:07.038Z,11.76
2022-09-28T07:07:07.050Z,11.77
2022-09-28T07:08:07.050Z,11.87
2022-09-28T07:09:24.518Z,11.81
2022-09-28T07:10:07.059Z,11.7
2022-09-28T07:11:07.042Z,11.57
2022-09-28T07:12:07.134Z,11.72
2022-09-28T07:13:09.105Z,11.71
2022-09-28T07:14:07.078Z,11.73
2022-09-28T07:15:07.045Z,11.88
2022-09-28T07:16:07.046Z,11.9
2022-09-28T07:17:12.638Z,11.9
2022-09-28T07:18:07.274Z,11.94
2022-09-28T07:19:07.046Z,12.01
2022-09-28T07:20:15.157Z,12.02
2022-09-28T07:21:07.625Z,12.18
2022-09-28T07:22:07.173Z,12.21
2022-09-28T07:23:17.105Z,12.03
2022-09-28T07:24:07.064Z,11.99
2022-09-28T07:25:07.054Z,12
2022-09-28T07:26:08.769Z,12.14
2022-09-28T07:27:07.060Z,11.99
2022-09-28T07:28:07.063Z,11.91
2022-09-28T07:29:07.063Z,11.9
2022-09-28T07:30:07.036Z,11.99
2022-09-28T07:31:07.065Z,11.99
2022-09-28T07:32:07.048Z,12.1
2022-09-28T07:33:07.060Z,12.01
2022-09-28T07:34:07.484Z,12.16
2022-09-28T07:35:07.059Z,12.16
2022-09-28T07:36:07.055Z,12.16
2022-09-28T07:37:07.074Z,11.88
2022-09-28T07:38:07.056Z,11.98
2022-09-28T07:39:07.222Z,12.01
2022-09-28T07:40:07.058Z,12.07
2022-09-28T07:41:07.103Z,12.18
2022-09-28T07:42:07.054Z,12.15
2022-09-28T07:43:07.062Z,12.31
2022-09-28T07:44:07.054Z,12.43
2022-09-28T07:45:07.061Z,12.56
2022-09-28T07:46:07.104Z,12.56
2022-09-28T07:47:07.049Z,12.43
2022-09-28T07:48:07.098Z,12.35
2022-09-28T07:49:10.010Z,12.4
2022-09-28T07:50:07.043Z,12.38
2022-09-28T07:51:07.047Z,12.5
2022-09-28T07:52:07.074Z,12.56
2022-09-28T07:53:07.057Z,12.54
2022-09-28T07:54:07.054Z,12.79
2022-09-28T07:55:07.547Z,12.76
2022-09-28T07:56:07.055Z,12.68
2022-09-28T07:57:07.061Z,12.71
2022-09-28T07:58:07.058Z,12.61
2022-09-28T07:59:07.054Z,12.75
2022-09-28T08:00:07.060Z,12.84
2022-09-28T08:01:07.103Z,12.91
2022-09-28T08:02:07.115Z,12.77
2022-09-28T08:03:07.062Z,12.89
2022-09-28T08:04:07.059Z,12.83
2022-09-28T08:05:07.056Z,12.88
2022-09-28T08:06:07.064Z,12.82
2022-09-28T08:07:07.075Z,12.82
2022-09-28T08:08:07.368Z,12.95
2022-09-28T08:09:07.056Z,12.94
2022-09-28T08:10:07.051Z,12.82
2022-09-28T08:11:07.055Z,12.84
2022-09-28T08:12:07.052Z,12.63
2022-09-28T08:13:08.713Z,12.72
2022-09-28T08:14:07.044Z,12.74
2022-09-28T08:15:07.036Z,12.86
2022-09-28T08:16:07.067Z,12.86
2022-09-28T08:17:07.044Z,12.71
2022-09-28T08:18:07.055Z,12.62
2022-09-28T08:19:07.066Z,12.31
2022-09-28T08:20:07.052Z,12.66
2022-09-28T08:21:07.037Z,12.72
2022-09-28T08:22:07.065Z,12.79
2022-09-28T08:23:07.042Z,12.7
2022-09-28T08:24:07.045Z,12.63
2022-09-28T08:25:07.056Z,12.55
2022-09-28T08:26:07.177Z,12.64
2022-09-28T08:27:07.057Z,12.66
2022-09-28T08:28:07.046Z,12.6
2022-09-28T08:29:07.054Z,12.56
2022-09-28T08:30:07.043Z,12.56
2022-09-28T08:31:07.188Z,12.64
2022-09-28T08:32:07.085Z,12.38
2022-09-28T08:33:07.054Z,12.43
2022-09-28T08:34:07.050Z,12.45
2022-09-28T08:35:07.053Z,12.41
2022-09-28T08:36:07.045Z,12.44
2022-09-28T08:37:07.234Z,12.53
2022-09-28T08:38:07.046Z,12.53
2022-09-28T08:39:07.055Z,12.46
2022-09-28T08:40:07.057Z,12.41
2022-09-28T08:41:07.059Z,12.57
2022-09-28T08:42:07.054Z,12.62
2022-09-28T08:43:07.741Z,12.6
2022-09-28T08:44:07.053Z,12.47
2022-09-28T08:45:07.048Z,12.47
2022-09-28T08:46:07.136Z,12.5
2022-09-28T08:47:07.054Z,12.34
2022-09-28T08:48:07.067Z,12.34
2022-09-28T08:49:24.267Z,12.83
2022-09-28T08:50:07.061Z,12.86
2022-09-28T08:51:07.063Z,12.76
2022-09-28T08:52:07.061Z,12.69
2022-09-28T08:53:07.070Z,12.62
2022-09-28T08:54:09.600Z,12.63
2022-09-28T08:55:07.055Z,12.6
2022-09-28T08:56:07.049Z,12.41
2022-09-28T08:57:07.746Z,12.39
2022-09-28T08:58:07.056Z,12.47
2022-09-28T08:59:07.550Z,12.61
2022-09-28T09:00:10.975Z,12.66
2022-09-28T09:01:07.137Z,12.71
2022-09-28T09:02:07.105Z,12.7
2022-09-28T09:03:07.061Z,12.65
2022-09-28T09:04:07.052Z,12.75
2022-09-28T09:05:07.057Z,12.74
2022-09-28T09:06:07.062Z,12.51
2022-09-28T09:07:07.061Z,12.54
2022-09-28T09:08:07.079Z,12.8
2022-09-28T09:09:07.055Z,12.63
2022-09-28T09:10:07.044Z,12.63
2022-09-28T09:11:07.143Z,12.61
2022-09-28T09:12:07.148Z,12.58
2022-09-28T09:13:07.051Z,12.6
2022-09-28T09:14:07.964Z,12.58
2022-09-28T09:15:07.080Z,12.83
2022-09-28T09:16:07.118Z,12.79
2022-09-28T09:17:07.152Z,12.66
2022-09-28T09:18:07.057Z,12.66
2022-09-28T09:19:07.498Z,12.92
2022-09-28T09:20:07.114Z,12.92
2022-09-28T09:21:07.167Z,12.81
2022-09-28T09:22:07.051Z,12.73
2022-09-28T09:23:07.060Z,12.35
2022-09-28T09:24:07.036Z,12.33
2022-09-28T09:25:07.052Z,12.39
2022-09-28T09:26:07.055Z,12.29
2022-09-28T09:27:07.041Z,12.17
2022-09-28T09:28:07.180Z,12.26
2022-09-28T09:29:07.039Z,12.29
2022-09-28T09:30:07.063Z,12.35
2022-09-28T09:31:07.272Z,12.32
2022-09-28T09:32:07.044Z,12.35
2022-09-28T09:33:07.059Z,12.4
2022-09-28T09:34:07.043Z,12.46
2022-09-28T09:35:07.051Z,12.27
2022-09-28T09:36:07.344Z,12.24
2022-09-28T09:37:07.048Z,12.09
2022-09-28T09:38:07.088Z,12.24
2022-09-28T09:39:07.056Z,12.05
2022-09-28T09:40:07.056Z,12.21
2022-09-28T09:41:07.186Z,12.31
2022-09-28T09:42:07.125Z,12.48
2022-09-28T09:43:07.063Z,12.28
2022-09-28T09:44:07.060Z,12.14
2022-09-28T09:45:07.061Z,12.2
2022-09-28T09:46:07.113Z,12.27
2022-09-28T09:47:07.053Z,12.35
2022-09-28T09:48:07.051Z,12.33
2022-09-28T09:49:07.049Z,12.26
2022-09-28T09:50:09.028Z,12.33
2022-09-28T09:51:07.058Z,12.3
2022-09-28T09:52:07.051Z,12.28
2022-09-28T09:53:07.075Z,12.03
2022-09-28T09:54:07.056Z,12.18
2022-09-28T09:55:07.054Z,12.16
2022-09-28T09:56:07.049Z,12.02
2022-09-28T09:57:07.061Z,12.03
2022-09-28T09:58:07.072Z,12.01
2022-09-28T09:59:07.062Z,11.86
2022-09-28T10:00:07.055Z,11.74
2022-09-28T10:01:07.131Z,12.18
2022-09-28T10:02:11.538Z,12.15
2022-09-28T10:03:07.058Z,12.29
2022-09-28T10:04:07.051Z,12.29
2022-09-28T10:05:07.175Z,12.37
2022-09-28T10:06:07.058Z,12.49
2022-09-28T10:07:07.051Z,12.36
2022-09-28T10:08:07.077Z,12.39
2022-09-28T10:09:07.045Z,12.45
2022-09-28T10:10:07.138Z,12.76
2022-09-28T10:11:07.052Z,12.8
2022-09-28T10:12:07.048Z,12.89
2022-09-28T10:13:07.069Z,13.15
2022-09-28T10:14:07.052Z,13.17
2022-09-28T10:15:07.049Z,12.97
2022-09-28T10:16:07.049Z,12.81
2022-09-28T10:17:07.125Z,12.83
2022-09-28T10:18:07.060Z,12.66
2022-09-28T10:19:07.062Z,12.73
2022-09-28T10:20:07.075Z,12.96
2022-09-28T10:21:07.052Z,12.67
2022-09-28T10:22:07.055Z,12.67
2022-09-28T10:23:07.098Z,12.7
2022-09-28T10:24:07.151Z,12.75
2022-09-28T10:25:07.050Z,12.76
2022-09-28T10:26:07.053Z,12.73
2022-09-28T10:27:07.039Z,12.69
2022-09-28T10:28:07.048Z,12.64
2022-09-28T10:29:07.036Z,12.72
2022-09-28T10:30:07.126Z,13.26
2022-09-28T10:32:07.052Z,13.52
2022-09-28T10:33:07.049Z,13.85
2022-09-28T10:34:07.062Z,14.22
2022-09-28T10:35:07.037Z,14.16
2022-09-28T10:36:07.038Z,14.04
2022-09-28T10:37:07.034Z,14.12
2022-09-28T10:38:07.089Z,14.09
2022-09-28T10:39:07.039Z,13.98
2022-09-28T10:40:07.136Z,13.92
2022-09-28T10:41:07.458Z,14.21
2022-09-28T10:42:07.041Z,14.45
2022-09-28T10:43:07.096Z,14.61
2022-09-28T10:44:07.109Z,14.09
2022-09-28T10:45:07.047Z,14.09
2022-09-28T10:46:07.134Z,13.74
2022-09-28T10:47:07.047Z,13.76
2022-09-28T10:48:07.061Z,13.76
2022-09-28T10:49:07.049Z,14.2
2022-09-28T10:50:07.086Z,14.47
2022-09-28T10:51:07.048Z,14.78
2022-09-28T10:52:07.053Z,14.66
2022-09-28T10:53:07.074Z,14.59
2022-09-28T10:54:07.058Z,14.99
2022-09-28T10:55:07.045Z,15.38
2022-09-28T10:56:13.286Z,15.33
2022-09-28T10:57:13.433Z,15.09
2022-09-28T10:58:11.529Z,15.29
2022-09-28T10:59:11.566Z,15.2
2022-09-28T11:00:11.553Z,15.34
2022-09-28T11:01:11.609Z,15.17
2022-09-28T11:02:11.586Z,15.12
2022-09-28T11:03:11.519Z,15.03
2022-09-28T11:04:11.555Z,15.03
2022-09-28T11:05:11.524Z,14.64
2022-09-28T11:06:11.508Z,14.83
2022-09-28T11:07:12.480Z,14.93
2022-09-28T11:08:11.528Z,15.19
2022-09-28T11:09:11.544Z,15.45
2022-09-28T11:10:11.505Z,15.49
2022-09-28T11:11:11.499Z,15.64
2022-09-28T11:12:11.507Z,15.33
2022-09-28T11:13:11.513Z,14.81
2022-09-28T11:14:11.513Z,15.07
2022-09-28T11:15:11.507Z,15.26
2022-09-28T11:16:11.507Z,15.52
2022-09-28T11:17:11.500Z,15.36
2022-09-28T11:18:11.509Z,15.21
2022-09-28T11:19:11.500Z,15.18
2022-09-28T11:20:11.496Z,15
2022-09-28T11:21:13.095Z,15.01
2022-09-28T11:22:13.590Z,15
2022-09-28T11:23:11.539Z,14.96
2022-09-28T11:24:14.444Z,14.73
2022-09-28T11:25:11.501Z,14.42
2022-09-28T11:26:14.858Z,14.64
2022-09-28T11:27:11.507Z,14.65
2022-09-28T11:28:11.503Z,14.63
2022-09-28T11:29:11.555Z,14.83
2022-09-28T11:30:11.511Z,15.14
2022-09-28T11:31:11.553Z,15.01
2022-09-28T11:32:15.555Z,15.28
2022-09-28T11:33:11.507Z,15.74
2022-09-28T11:34:11.545Z,15.75
2022-09-28T11:35:11.493Z,15.76
2022-09-28T11:36:11.495Z,15.87
2022-09-28T11:37:11.495Z,15.55
2022-09-28T11:38:11.557Z,14.77
2022-09-28T11:39:11.489Z,14.81
2022-09-28T11:40:11.523Z,14.99
2022-09-28T11:41:11.509Z,15.05
2022-09-28T11:42:16.076Z,14.97
2022-09-28T11:43:13.349Z,14.91
2022-09-28T11:44:11.582Z,14.72
2022-09-28T11:45:11.498Z,13.7
2022-09-28T11:46:11.570Z,13.48
2022-09-28T11:47:11.496Z,13.8
2022-09-28T11:48:11.664Z,13.9
2022-09-28T11:49:11.488Z,14.25
2022-09-28T11:50:11.517Z,14.86
2022-09-28T11:51:11.489Z,15.15
2022-09-28T11:52:11.491Z,15.29
2022-09-28T11:53:11.512Z,15.29
2022-09-28T11:54:11.581Z,15.39
2022-09-28T11:55:11.490Z,15.28
2022-09-28T11:56:11.499Z,15.33
2022-09-28T11:57:11.487Z,15.29
2022-09-28T11:58:11.497Z,15.19
2022-09-28T11:59:11.492Z,15.24
2022-09-28T12:00:11.518Z,14.85
2022-09-28T12:01:14.336Z,14.85
2022-09-28T12:02:11.619Z,14.68
2022-09-28T12:03:11.572Z,14.73
2022-09-28T12:04:11.538Z,14.5
2022-09-28T12:05:11.505Z,14.83
2022-09-28T12:06:11.501Z,14.71
2022-09-28T12:07:11.501Z,14.66
2022-09-28T12:08:11.510Z,14.68
2022-09-28T12:09:11.587Z,14.37
2022-09-28T12:10:11.492Z,14.2
2022-09-28T12:11:11.501Z,14.21
2022-09-28T12:12:11.510Z,14.13
2022-09-28T12:13:11.507Z,14.31
2022-09-28T12:14:11.577Z,14.26
2022-09-28T12:15:11.502Z,14.31
2022-09-28T12:16:38.456Z,14.45
2022-09-28T12:17:11.557Z,14.62
2022-09-28T12:18:11.561Z,14.43
2022-09-28T12:19:11.602Z,14.64
2022-09-28T12:20:11.515Z,14.9
2022-09-28T12:21:11.499Z,15.02
2022-09-28T12:22:11.502Z,15.08
2022-09-28T12:23:11.517Z,15.01
2022-09-28T12:24:11.521Z,14.98
2022-09-28T12:25:11.498Z,14.8
2022-09-28T12:26:11.495Z,15.02
2022-09-28T12:27:11.505Z,15.15
2022-09-28T12:28:11.505Z,15.09
2022-09-28T12:29:11.556Z,15.25
2022-09-28T12:30:11.508Z,15.37
2022-09-28T12:31:11.525Z,15.49
2022-09-28T12:32:11.500Z,15.29
2022-09-28T12:33:11.541Z,14.8
2022-09-28T12:34:11.498Z,14.98
2022-09-28T12:35:11.503Z,15.24
2022-09-28T12:36:11.508Z,15.24
2022-09-28T12:37:11.506Z,15.44
2022-09-28T12:38:11.521Z,15.76
2022-09-28T12:39:27.096Z,15.82
2022-09-28T12:40:11.499Z,15.74
2022-09-28T12:41:11.491Z,15.8
2022-09-28T12:42:11.496Z,15.23
2022-09-28T12:43:11.502Z,15.23
2022-09-28T12:44:11.498Z,15.87
2022-09-28T12:45:11.495Z,15.83
2022-09-28T12:46:12.704Z,15.54
2022-09-28T12:47:11.538Z,15.83
2022-09-28T12:48:11.497Z,15.54
2022-09-28T12:50:39.018Z,15.97
2022-09-28T12:51:11.487Z,15.97
2022-09-28T12:52:11.493Z,15.95
2022-09-28T12:53:11.557Z,16.04
2022-09-28T12:54:11.555Z,16.46
2022-09-28T12:56:11.504Z,16.19
2022-09-28T12:57:11.480Z,15.81
2022-09-28T12:58:11.597Z,15.66
2022-09-28T12:59:11.564Z,15.81
2022-09-28T13:00:11.543Z,15.24